CYQH

Watson Lake Airport

Watson Lake, , Canada
METAR CYQH 192000Z 26004KT 160V300 40SM SCT130 28/01 A3001 RMK AC3 SLP163 DENSITY ALT 4200FT
Observed Flight Rules
Jun-19 @ 20:00 UTC (13 minutes ago) Visual Flight Rules
Wind Visibility Clouds
260° at 4 knots 40 miles
  • Scattered at 13,000' AGL
Temperatures Readings
Current 28°C / 82°F
Dewpoint 1°C / 34°F
Humidity 17%
Altimeter 30.01" Hg
Pressure 1016.3 hPa
Elevation 690
METAR CYQH 192000Z 26004KT 160V300 40SM SCT130 28/01 A3001 RMK AC3 SLP163 DENSITY ALT 4200FT
Observed Flight Rules
Jun-19 @ 20:00 UTC
(13 minutes ago)
VFR
Wind Visibility
260° at 4 knots 40 miles
Clouds
  • Scattered at 13,000' AGL
Temperature Dewpoint
28°C / 82°F 1°C / 34°F
Humidity Altimeter Pressure
17% 30.01" Hg 1016.3 hPa